Time;durP1;ratioP1;P1;durP2;ratioP2;P2;SDS_P1;SDS_P2;PMS_P1;PMS_P2;Temp;Humidity;BMP_temperature;BMP_pressure;BME280_temperature;BME280_humidity;BME280_pressure;Samples;Min_cycle;Max_cycle;Signal;HPM_P1;HPM_P2
2023/07/11 02:42:25;;;;;;;5.10;3.10;;;;;;;23.58;100.00;100390.58;106019;1262;61380;-92
2023/07/11 02:45:15;;;;;;;4.60;3.60;;;;;;;23.68;100.00;100393.46;106184;1258;61762;-89
2023/07/11 02:48:04;;;;;;;4.10;2.60;;;;;;;23.74;100.00;100397.12;106074;1257;74658;-91
2023/07/11 02:50:53;;;;;;;4.10;2.80;;;;;;;23.80;100.00;100395.79;106160;1257;67178;-90
2023/07/11 02:53:42;;;;;;;4.90;3.10;;;;;;;23.91;100.00;100392.72;106095;1257;72718;-90
2023/07/11 02:56:31;;;;;;;6.70;3.30;;;;;;;24.09;100.00;100398.29;106289;1259;61274;-90
2023/07/11 02:59:22;;;;;;;6.00;3.10;;;;;;;24.31;100.00;100402.33;106131;1257;60407;-92
2023/07/11 03:02:11;;;;;;;11.90;3.60;;;;;;;24.44;100.00;100401.20;105964;1264;73402;-91
2023/07/11 03:04:59;;;;;;;6.60;3.60;;;;;;;24.54;100.00;100401.83;106072;1257;69174;-91
2023/07/11 03:07:48;;;;;;;3.30;2.70;;;;;;;24.65;100.00;100401.13;105939;1256;73438;-90
2023/07/11 03:10:38;;;;;;;10.50;3.20;;;;;;;24.72;100.00;100401.64;106055;1257;61190;-90
2023/07/11 03:13:28;;;;;;;7.10;3.40;;;;;;;24.78;100.00;100403.39;106308;1260;61728;-91
2023/07/11 03:16:16;;;;;;;6.00;3.40;;;;;;;24.89;100.00;100400.27;106632;1257;75699;-90
2023/07/11 03:19:05;;;;;;;7.00;3.30;;;;;;;25.00;100.00;100400.34;106190;1256;61421;-91
2023/07/11 03:21:53;;;;;;;6.90;3.50;;;;;;;25.10;100.00;100404.31;106037;1261;72941;-88
2023/07/11 03:24:42;;;;;;;5.80;3.10;;;;;;;25.22;100.00;100400.09;106227;1257;61189;-91
2023/07/11 03:27:31;;;;;;;4.10;2.90;;;;;;;25.35;100.00;100389.16;105811;1262;61272;-91
2023/07/11 03:30:19;;;;;;;8.00;3.40;;;;;;;25.45;100.00;100390.30;106035;1258;75007;-91
2023/07/11 03:33:08;;;;;;;7.60;3.10;;;;;;;25.58;100.00;100388.23;106183;1262;61256;-91
2023/07/11 03:35:56;;;;;;;5.40;3.30;;;;;;;25.70;100.00;100386.83;106010;1257;65187;-91
2023/07/11 03:38:46;;;;;;;4.70;3.60;;;;;;;25.85;100.00;100388.02;106257;1262;61340;-90
2023/07/11 03:41:36;;;;;;;4.60;3.30;;;;;;;25.93;100.00;100387.16;105993;1262;61448;-93
2023/07/11 03:44:27;;;;;;;5.30;3.20;;;;;;;25.98;100.00;100384.56;106261;1262;66011;-92
2023/07/11 03:47:15;;;;;;;6.10;3.40;;;;;;;26.18;100.00;100386.02;106238;1257;61808;-92
2023/07/11 03:50:05;;;;;;;4.30;3.00;;;;;;;26.35;100.00;100385.52;106252;1260;65336;-91
2023/07/11 03:52:55;;;;;;;5.70;3.60;;;;;;;26.41;100.00;100387.79;106231;1257;61340;-92
2023/07/11 03:55:43;;;;;;;6.50;3.40;;;;;;;26.42;99.59;100386.21;106066;1258;61269;-91
2023/07/11 03:58:32;;;;;;;5.20;3.20;;;;;;;26.51;98.94;100387.33;106295;1261;67173;-91
2023/07/11 04:01:20;;;;;;;6.60;3.30;;;;;;;26.59;98.75;100391.56;106307;1257;61319;-93
2023/07/11 04:04:09;;;;;;;8.60;4.00;;;;;;;26.67;99.17;100394.48;106124;1256;64113;-90
2023/07/11 04:06:58;;;;;;;4.90;3.40;;;;;;;26.77;99.33;100391.12;106113;1260;61138;-93
2023/07/11 04:09:47;;;;;;;6.70;3.60;;;;;;;26.92;99.78;100384.08;106038;1257;59920;-92
2023/07/11 04:12:35;;;;;;;8.20;3.40;;;;;;;27.06;99.93;100381.51;106279;1259;64767;-91
2023/07/11 04:15:24;;;;;;;6.40;3.30;;;;;;;27.14;99.97;100387.70;106377;1261;61213;-91
2023/07/11 04:18:12;;;;;;;5.10;2.90;;;;;;;27.23;100.00;100389.92;106583;1260;221507;-91
2023/07/11 04:21:01;;;;;;;4.20;3.50;;;;;;;27.33;98.12;100389.73;106829;1257;61127;-92
2023/07/11 04:23:50;;;;;;;6.90;3.70;;;;;;;27.47;98.33;100390.58;106739;1262;59736;-93
2023/07/11 04:26:39;;;;;;;6.20;4.00;;;;;;;27.66;96.40;100393.59;106577;1261;66232;-92
2023/07/11 04:29:27;;;;;;;11.50;3.80;;;;;;;27.80;95.00;100393.95;106451;1257;69460;-92
2023/07/11 04:32:17;;;;;;;11.10;3.40;;;;;;;27.99;93.21;100396.89;106208;1260;64904;-92
2023/07/11 04:35:11;;;;;;;8.60;4.50;;;;;;;28.05;93.85;100398.90;106176;1256;61355;-93
2023/07/11 04:38:00;;;;;;;5.70;3.80;;;;;;;27.98;93.89;100398.48;106292;1256;61353;-92
2023/07/11 04:40:48;;;;;;;6.70;3.80;;;;;;;28.03;94.38;100397.05;106111;1259;65948;-92
2023/07/11 04:43:38;;;;;;;5.70;3.80;;;;;;;28.06;95.78;100395.20;106315;1260;61163;-91
2023/07/11 04:46:27;;;;;;;7.60;4.00;;;;;;;28.19;97.38;100391.36;106237;1257;64850;-93
2023/07/11 04:49:15;;;;;;;4.70;3.40;;;;;;;28.37;98.08;100394.08;106302;1257;61213;-93
2023/07/11 04:52:04;;;;;;;4.40;3.10;;;;;;;28.60;97.15;100388.30;106266;1257;61273;-92
2023/07/11 04:54:52;;;;;;;3.90;3.40;;;;;;;28.67;97.84;100389.25;106379;1257;67395;-95
2023/07/11 04:57:40;;;;;;;5.70;3.50;;;;;;;28.82;98.24;100387.61;106442;1256;61288;-92
2023/07/11 05:00:29;;;;;;;5.90;3.60;;;;;;;28.97;96.96;100387.23;106612;1257;63929;-94
2023/07/11 05:03:22;;;;;;;4.50;3.30;;;;;;;29.18;96.06;100385.58;106379;1258;61156;-92
2023/07/11 05:06:12;;;;;;;4.70;2.90;;;;;;;29.30;95.53;100388.43;106410;1257;61250;-92
2023/07/11 05:09:00;;;;;;;4.20;3.30;;;;;;;29.42;95.08;100389.59;106432;1257;65990;-93
2023/07/11 05:11:50;;;;;;;6.30;3.50;;;;;;;29.45;94.06;100387.30;106572;1258;60646;-93
2023/07/11 05:14:39;;;;;;;7.60;3.60;;;;;;;29.59;93.92;100389.98;106493;1256;63768;-92
2023/07/11 05:17:28;;;;;;;4.70;3.30;;;;;;;29.70;94.73;100391.86;106377;1258;61304;-93
2023/07/11 05:20:17;;;;;;;5.10;3.50;;;;;;;29.84;95.90;100391.62;106750;1256;61247;-94
2023/07/11 05:23:06;;;;;;;5.80;3.10;;;;;;;29.96;94.70;100389.59;106691;1260;66989;-93
2023/07/11 05:25:55;;;;;;;3.60;2.80;;;;;;;30.15;94.81;100386.33;106658;1257;61139;-92
2023/07/11 05:28:45;;;;;;;6.90;3.30;;;;;;;30.38;93.57;100384.85;106581;1257;63527;-93
2023/07/11 05:31:34;;;;;;;6.80;3.70;;;;;;;30.51;91.20;100381.84;106410;1261;61155;-92
2023/07/11 05:34:28;;;;;;;5.20;3.60;;;;;;;30.64;91.47;100378.39;106424;1262;61186;-93
2023/07/11 05:37:18;;;;;;;4.30;3.40;;;;;;;30.65;91.22;100378.63;106517;1260;67287;-94
2023/07/11 05:40:08;;;;;;;5.20;3.00;;;;;;;30.75;93.13;100377.80;106678;1258;61348;-92
2023/07/11 05:42:57;;;;;;;5.00;3.60;;;;;;;30.89;95.22;100380.32;106415;1262;64918;-93
2023/07/11 05:45:46;;;;;;;4.60;3.20;;;;;;;30.98;94.82;100387.06;106502;1256;61375;-92
2023/07/11 05:48:34;;;;;;;6.70;2.70;;;;;;;31.20;91.38;100388.16;106342;1261;61125;-90
2023/07/11 05:51:24;;;;;;;4.10;3.10;;;;;;;31.37;88.62;100386.92;106689;1262;67051;-92
2023/07/11 05:54:13;;;;;;;6.20;2.90;;;;;;;31.51;89.94;100385.55;106641;1260;61199;-91
2023/07/11 05:57:02;;;;;;;6.60;3.30;;;;;;;31.75;88.57;100389.05;106507;1263;64236;-93
2023/07/11 05:59:53;;;;;;;6.10;3.00;;;;;;;31.74;87.97;100378.50;107178;1257;61157;-92
2023/07/11 06:02:42;;;;;;;5.50;3.10;;;;;;;31.83;90.63;100374.00;106847;1257;61241;-93
2023/07/11 06:05:32;;;;;;;4.00;2.90;;;;;;;31.98;87.28;100374.35;107008;1257;66771;-93
2023/07/11 06:08:37;;;;;;;4.20;3.10;;;;;;;32.04;84.72;100367.89;106960;1256;68935;-92
2023/07/11 06:11:29;;;;;;;4.10;3.00;;;;;;;32.18;85.57;100363.13;106798;1256;63894;-93
2023/07/11 06:14:22;;;;;;;7.20;3.10;;;;;;;32.25;84.41;100359.12;106652;1261;61314;-93
2023/07/11 06:17:11;;;;;;;3.90;3.00;;;;;;;32.39;85.95;100357.02;106867;1258;61408;-93
2023/07/11 06:20:03;;;;;;;4.60;2.90;;;;;;;32.60;86.52;100362.56;106514;1257;73970;-91
2023/07/11 06:22:53;;;;;;;6.90;3.00;;;;;;;32.75;83.15;100367.67;106655;1257;61193;-92
2023/07/11 06:25:41;;;;;;;4.80;2.70;;;;;;;32.82;79.22;100364.40;107199;1257;63799;-91
2023/07/11 06:28:30;;;;;;;3.50;2.40;;;;;;;32.93;80.84;100362.40;107424;1258;61337;-92
2023/07/11 06:31:22;;;;;;;4.70;2.40;;;;;;;33.11;78.97;100359.16;107222;1257;60752;-91
2023/07/11 06:34:28;;;;;;;3.40;2.60;;;;;;;33.20;77.18;100354.90;107560;1257;65077;-92
2023/07/11 06:37:22;;;;;;;5.50;2.40;;;;;;;33.33;75.00;100352.92;108047;1257;61348;-93
2023/07/11 06:40:14;;;;;;;5.40;2.60;;;;;;;33.47;70.60;100355.70;107273;1256;65153;-93
2023/07/11 06:43:04;;;;;;;4.70;2.20;;;;;;;33.54;69.11;100358.71;107335;1256;61331;-93
2023/07/11 06:46:14;;;;;;;3.00;2.40;;;;;;;33.58;59.65;100363.96;107354;1257;61238;-93
2023/07/11 06:49:07;;;;;;;3.90;2.50;;;;;;;33.55;57.38;100362.23;107178;1256;66947;-94
2023/07/11 06:52:02;;;;;;;5.90;2.40;;;;;;;33.70;54.73;100361.67;107259;1257;61159;-92
2023/07/11 06:54:51;;;;;;;6.50;3.20;;;;;;;33.83;54.42;100361.69;107047;1257;64976;-93
2023/07/11 06:57:41;;;;;;;4.90;2.80;;;;;;;33.98;51.89;100364.06;106945;1258;61177;-92
2023/07/11 07:00:30;;;;;;;2.90;2.10;;;;;;;34.04;47.69;100361.23;106673;1257;61235;-93
2023/07/11 07:03:22;;;;;;;5.30;2.60;;;;;;;34.00;46.57;100359.08;106959;1255;76226;-92
2023/07/11 07:06:13;;;;;;;4.60;2.50;;;;;;;34.14;47.59;100357.03;107141;1256;61284;-92
2023/07/11 07:09:04;;;;;;;4.30;2.40;;;;;;;34.21;45.71;100352.42;107395;1255;63883;-92
2023/07/11 07:11:56;;;;;;;2.80;2.30;;;;;;;34.05;45.24;100344.13;107281;1256;61275;-92
2023/07/11 07:14:46;;;;;;;3.20;2.50;;;;;;;33.99;44.63;100343.15;106667;1258;61041;-92
2023/07/11 07:17:36;;;;;;;5.10;2.30;;;;;;;34.15;44.19;100340.98;106784;1257;66147;-92
2023/07/11 07:20:27;;;;;;;4.60;2.20;;;;;;;34.27;42.76;100336.39;106748;1256;60547;-92
2023/07/11 07:23:23;;;;;;;4.80;2.30;;;;;;;34.36;41.79;100333.31;106817;1260;63985;-91
2023/07/11 07:26:18;;;;;;;2.30;2.10;;;;;;;34.51;41.46;100333.79;106648;1257;61244;-94
2023/07/11 07:29:07;;;;;;;2.60;2.20;;;;;;;34.61;41.52;100334.42;106781;1257;61115;-93
2023/07/11 07:31:58;;;;;;;4.40;2.60;;;;;;;34.67;41.51;100333.05;107035;1257;67374;-92
2023/07/11 07:34:53;;;;;;;3.90;2.20;;;;;;;34.76;42.20;100334.02;107333;1258;61322;-93
2023/07/11 07:37:43;;;;;;;3.10;2.10;;;;;;;34.87;42.17;100331.36;107796;1256;65073;-92
2023/07/11 07:40:42;;;;;;;3.50;2.30;;;;;;;34.99;41.30;100331.24;107241;1255;61325;-92
2023/07/11 07:43:46;;;;;;;2.50;2.10;;;;;;;35.00;39.29;100329.66;107745;1255;61265;-94
2023/07/11 07:46:53;;;;;;;3.40;2.40;;;;;;;34.92;38.72;100333.31;107414;1255;66537;-94
2023/07/11 07:49:45;;;;;;;5.30;2.30;;;;;;;34.97;38.43;100328.70;107545;1256;61172;-93
2023/07/11 07:52:47;;;;;;;3.00;1.90;;;;;;;35.09;38.03;100329.58;107802;1256;71547;-93
2023/07/11 07:55:39;;;;;;;7.20;2.30;;;;;;;35.07;36.36;100333.27;107168;1257;60513;-94
2023/07/11 07:58:33;;;;;;;2.30;1.70;;;;;;;35.22;37.18;100332.36;107097;1255;61245;-94
2023/07/11 08:01:28;;;;;;;2.90;2.20;;;;;;;35.57;37.99;100334.13;107225;1257;65831;-94
2023/07/11 08:04:25;;;;;;;2.10;1.90;;;;;;;35.87;35.42;100332.20;107202;1256;69234;-92
2023/07/11 08:07:23;;;;;;;3.30;2.30;;;;;;;35.99;36.03;100335.62;107267;1255;63773;-94
2023/07/11 08:10:16;;;;;;;2.10;1.90;;;;;;;35.94;36.66;100336.89;106935;1256;61272;-94
2023/07/11 08:13:06;;;;;;;3.10;2.30;;;;;;;36.04;37.19;100335.77;107340;1256;61252;-93
2023/07/11 08:16:05;;;;;;;2.30;2.10;;;;;;;36.18;36.84;100336.93;107311;1255;66763;-93
2023/07/11 08:19:18;;;;;;;2.20;1.90;;;;;;;36.10;35.77;100338.66;107410;1256;61183;-94
2023/07/11 08:22:12;;;;;;;3.20;1.90;;;;;;;35.90;34.99;100340.30;107621;1255;64398;-93
2023/07/11 08:25:08;;;;;;;2.90;2.00;;;;;;;35.83;34.65;100341.36;107130;1255;61214;-93
2023/07/11 08:28:06;;;;;;;2.50;2.30;;;;;;;35.81;34.99;100342.45;107301;1258;61305;-94
2023/07/11 08:31:02;;;;;;;3.10;2.10;;;;;;;35.83;34.78;100344.76;107776;1257;65155;-93
2023/07/11 08:34:09;;;;;;;2.50;2.00;;;;;;;35.70;33.98;100349.54;107744;1257;61217;-94
2023/07/11 08:37:01;;;;;;;2.80;2.20;;;;;;;35.60;33.95;100350.71;107483;1261;74713;-94
2023/07/11 08:39:52;;;;;;;4.60;2.40;;;;;;;35.71;33.84;100349.70;107291;1256;61980;-94
2023/07/11 08:42:46;;;;;;;3.20;2.30;;;;;;;35.82;34.41;100350.94;107071;1256;61173;-93
2023/07/11 08:45:48;;;;;;;1.70;1.60;;;;;;;36.15;35.31;100344.92;106933;1255;66023;-91
2023/07/11 08:49:00;;;;;;;2.10;1.80;;;;;;;36.24;32.98;100342.71;106698;1257;61275;-91
2023/07/11 08:51:56;;;;;;;3.50;2.00;;;;;;;36.19;32.01;100337.80;107618;1253;64866;-94
2023/07/11 08:55:02;;;;;;;2.10;1.80;;;;;;;35.94;32.06;100343.65;107152;1257;61344;-93
2023/07/11 08:58:22;;;;;;;3.20;1.70;;;;;;;35.54;31.89;100342.91;106757;1258;61472;-92
2023/07/11 09:01:39;;;;;;;2.90;1.90;;;;;;;35.36;31.93;100341.35;107558;1254;66772;-93
2023/07/11 09:04:32;;;;;;;5.60;1.90;;;;;;;35.50;32.53;100338.39;106906;1256;61953;-93
2023/07/11 09:07:41;;;;;;;5.10;2.10;;;;;;;35.69;32.40;100344.58;106858;1260;63240;-93
2023/07/11 09:10:41;;;;;;;6.00;1.70;;;;;;;35.87;31.30;100342.51;107172;1260;61428;-92
2023/07/11 09:13:47;;;;;;;3.00;1.70;;;;;;;36.02;30.67;100341.91;106834;1256;61242;-94
2023/07/11 09:17:03;;;;;;;;;;;;;;;36.11;30.43;100343.35;106838;1255;66593;-93
2023/07/11 09:20:27;;;;;;;2.80;1.70;;;;;;;35.96;30.31;100335.85;107008;1257;61240;-92
2023/07/11 09:23:39;;;;;;;3.20;1.70;;;;;;;35.90;30.92;100332.73;106589;1262;65416;-91
2023/07/11 09:26:32;;;;;;;3.10;1.60;;;;;;;36.10;31.05;100335.75;106797;1257;61179;-93
2023/07/11 09:29:29;;;;;;;2.30;1.60;;;;;;;36.29;31.00;100333.48;106603;1261;61147;-92
2023/07/11 09:32:38;;;;;;;2.30;1.70;;;;;;;36.30;29.20;100336.10;106325;1258;74101;-92
2023/07/11 09:35:34;;;;;;;1.70;1.30;;;;;;;36.31;30.02;100335.66;106453;1263;61332;-93
2023/07/11 09:38:50;;;;;;;2.90;1.40;;;;;;;36.17;30.09;100330.40;106846;1266;62725;-93
2023/07/11 09:42:13;;;;;;;3.00;1.60;;;;;;;36.22;31.22;100324.03;106871;1255;61181;-94
2023/07/11 09:45:12;;;;;;;3.30;1.30;;;;;;;36.32;30.92;100326.36;106405;1257;61329;-95
2023/07/11 09:48:13;;;;;;;2.30;1.40;;;;;;;36.28;29.23;100320.18;106992;1260;65892;-92
2023/07/11 09:51:28;;;;;;;2.30;1.30;;;;;;;36.27;29.59;100316.33;106529;1259;61245;-92
2023/07/11 09:54:23;;;;;;;6.10;1.50;;;;;;;36.16;30.61;100314.41;106657;1262;63985;-93
2023/07/11 09:57:16;;;;;;;2.10;1.40;;;;;;;36.12;29.95;100320.55;106487;1257;61140;-92
2023/07/11 10:00:09;;;;;;;;;;;;;;;36.25;30.59;100321.43;106615;1261;61299;-93
2023/07/11 10:03:00;;;;;;;2.40;1.50;;;;;;;36.32;29.18;100323.29;106528;1259;66166;-93
2023/07/11 10:05:50;;;;;;;5.90;1.50;;;;;;;36.35;29.35;100325.06;106401;1258;61260;-92
2023/07/11 10:08:43;;;;;;;1.50;1.30;;;;;;;36.62;30.06;100324.35;106350;1256;63806;-94
2023/07/11 10:11:31;;;;;;;1.90;1.40;;;;;;;36.77;29.57;100323.05;106484;1257;61273;-92
2023/07/11 10:14:26;;;;;;;2.80;1.50;;;;;;;36.79;28.96;100319.17;106443;1260;61207;-93
2023/07/11 10:17:28;;;;;;;4.50;1.50;;;;;;;36.88;29.12;100321.09;106979;1262;66977;-94
2023/07/11 10:20:18;;;;;;;2.00;1.50;;;;;;;36.75;29.07;100316.38;106678;1256;61310;-92
2023/07/11 10:23:10;;;;;;;2.00;1.80;;;;;;;36.73;28.92;100308.56;106422;1262;64709;-93
2023/07/11 10:26:11;;;;;;;1.60;1.50;;;;;;;36.69;29.68;100306.86;107165;1256;61161;-93
2023/07/11 10:29:07;;;;;;;3.30;1.70;;;;;;;36.61;29.44;100308.95;106766;1256;61270;-92
2023/07/11 10:32:30;;;;;;;2.80;1.80;;;;;;;36.63;29.39;100308.14;106708;1256;67052;-93
2023/07/11 10:35:20;;;;;;;2.90;1.70;;;;;;;36.73;29.12;100309.45;106892;1261;61690;-93
2023/07/11 10:38:23;;;;;;;3.70;2.10;;;;;;;36.87;29.62;100312.13;106807;1262;64024;-94
2023/07/11 10:41:21;;;;;;;3.80;1.90;;;;;;;37.13;29.23;100312.45;106826;1262;61265;-93
2023/07/11 10:44:22;;;;;;;3.20;2.30;;;;;;;37.31;28.83;100313.45;106664;1259;61676;-93
2023/07/11 10:47:18;;;;;;;1.90;1.60;;;;;;;37.36;28.64;100316.09;106477;1257;66815;-92
2023/07/11 10:50:24;;;;;;;3.90;1.70;;;;;;;37.33;28.71;100320.38;106799;1256;61188;-92
2023/07/11 10:53:50;;;;;;;4.00;2.00;;;;;;;37.38;28.60;100320.81;106376;1256;64121;-92
2023/07/11 10:56:44;;;;;;;1.70;1.50;;;;;;;37.33;28.11;100316.89;106687;1260;61185;-92
2023/07/11 10:59:33;;;;;;;3.90;2.00;;;;;;;37.31;27.83;100324.86;106947;1257;61274;-93
2023/07/11 11:02:47;;;;;;;2.10;1.60;;;;;;;37.37;27.87;100327.55;106801;1257;66058;-92
2023/07/11 11:06:16;;;;;;;1.80;1.60;;;;;;;37.07;27.72;100328.86;106725;1263;61412;-94
2023/07/11 11:09:19;;;;;;;2.10;1.80;;;;;;;36.86;28.60;100323.38;106194;1261;62877;-93
2023/07/11 11:12:30;;;;;;;3.70;1.70;;;;;;;36.95;28.02;100319.55;106709;1258;61748;-93
2023/07/11 11:16:06;;;;;;;1.70;1.60;;;;;;;37.16;27.54;100320.95;106844;1257;61373;-94
2023/07/11 11:19:05;;;;;;;1.30;1.20;;;;;;;37.35;26.95;100322.80;106123;1264;66401;-93
2023/07/11 11:22:09;;;;;;;2.00;1.40;;;;;;;37.52;27.27;100318.73;106018;1263;61484;-92
2023/07/11 11:25:00;;;;;;;5.40;1.90;;;;;;;37.57;26.84;100321.23;106256;1260;63720;-91
2023/07/11 11:28:07;;;;;;;2.10;1.40;;;;;;;37.67;26.39;100322.70;106338;1263;61237;-93
2023/07/11 11:31:10;;;;;;;3.40;1.70;;;;;;;38.00;26.45;100317.19;106488;1257;59412;-92
2023/07/11 11:34:15;;;;;;;1.60;1.50;;;;;;;38.25;26.94;100323.05;106865;1257;67701;-94
2023/07/11 11:37:06;;;;;;;1.80;1.70;;;;;;;38.38;26.42;100323.17;106802;1257;61234;-93
2023/07/11 11:40:16;;;;;;;2.90;1.60;;;;;;;38.36;25.69;100323.70;107091;1260;64033;-93
2023/07/11 11:43:07;;;;;;;2.10;1.80;;;;;;;38.18;25.75;100324.56;106519;1262;61309;-92
2023/07/11 11:46:07;;;;;;;5.00;1.80;;;;;;;37.75;25.91;100322.44;106668;1257;61287;-93
2023/07/11 11:49:03;;;;;;;1.80;1.70;;;;;;;37.50;26.17;100319.29;106525;1264;64893;-93
2023/07/11 11:53:03;;;;;;;3.40;2.00;;;;;;;37.07;25.94;100318.54;106516;1257;68943;-93
2023/07/11 11:56:36;;;;;;;5.80;2.30;;;;;;;36.95;26.93;100317.27;107498;1256;65787;-95
2023/07/11 12:00:10;;;;;;;3.50;2.00;;;;;;;37.16;26.37;100317.67;106713;1257;61326;-95
2023/07/11 12:03:51;;;;;;;2.60;2.30;;;;;;;37.25;26.12;100315.56;106826;1260;61247;-94
2023/07/11 12:07:30;;;;;;;3.30;2.10;;;;;;;37.37;26.09;100310.46;106529;1260;65901;-93
2023/07/11 12:11:12;;;;;;;2.90;2.10;;;;;;;37.32;26.27;100309.02;106998;1257;61546;-93
2023/07/11 12:15:00;;;;;;;2.80;2.50;;;;;;;37.33;27.36;100311.59;106710;1258;66587;-93
2023/07/11 12:18:34;;;;;;;2.90;2.40;;;;;;;37.65;27.41;100306.72;106873;1257;61299;-94
2023/07/11 12:22:07;;;;;;;4.90;2.50;;;;;;;38.03;26.48;100306.45;106248;1257;61248;-93
2023/07/11 12:25:40;;;;;;;2.20;2.00;;;;;;;38.18;24.87;100312.23;106216;1256;66097;-91
2023/07/11 12:29:13;;;;;;;2.70;2.00;;;;;;;37.97;25.82;100302.31;106088;1256;61254;-91
2023/07/11 12:32:46;;;;;;;4.60;2.00;;;;;;;37.89;26.58;100299.95;106246;1260;65123;-92
2023/07/11 12:36:07;;;;;;;3.00;2.10;;;;;;;38.00;27.36;100297.60;106557;1257;61141;-90
2023/07/11 12:39:41;;;;;;;3.50;1.90;;;;;;;38.18;26.64;100294.75;106215;1257;61148;-90
2023/07/11 12:43:14;;;;;;;3.90;2.00;;;;;;;38.06;25.85;100295.64;106355;1257;67073;-92
2023/07/11 12:46:48;;;;;;;2.30;2.10;;;;;;;37.63;26.31;100295.56;106258;1259;61253;-93
2023/07/11 12:50:22;;;;;;;2.20;1.90;;;;;;;37.33;25.88;100299.30;106367;1258;64811;-92
2023/07/11 12:53:55;;;;;;;2.40;2.10;;;;;;;37.28;26.03;100300.45;106197;1258;61319;-90
2023/07/11 12:57:28;;;;;;;2.60;2.20;;;;;;;37.29;26.43;100296.95;106337;1257;61228;-92
2023/07/11 13:01:01;;;;;;;2.30;2.00;;;;;;;37.68;26.94;100297.32;106167;1258;67052;-90
2023/07/11 13:04:35;;;;;;;7.20;2.30;;;;;;;38.37;26.59;100293.96;106216;1260;61304;-92
2023/07/11 13:08:08;;;;;;;3.90;2.30;;;;;;;38.79;25.90;100294.21;106339;1255;64073;-92
2023/07/11 13:11:41;;;;;;;4.80;2.30;;;;;;;39.08;24.86;100296.70;106024;1261;61219;-93
2023/07/11 13:15:14;;;;;;;2.30;2.10;;;;;;;39.09;23.83;100300.05;106336;1256;61290;-92
2023/07/11 13:18:47;;;;;;;3.10;2.10;;;;;;;38.78;24.05;100299.17;106275;1259;67077;-94
2023/07/11 13:22:22;;;;;;;2.50;2.30;;;;;;;38.43;24.47;100302.61;106373;1256;61382;-91
2023/07/11 13:25:57;;;;;;;2.10;1.90;;;;;;;38.01;24.76;100307.02;106079;1260;64923;-91
2023/07/11 13:29:32;;;;;;;2.10;1.90;;;;;;;37.71;25.33;100306.14;106311;1258;61117;-93
2023/07/11 13:33:07;;;;;;;2.70;2.10;;;;;;;37.50;26.20;100303.33;106298;1258;61235;-92
2023/07/11 13:36:41;;;;;;;4.80;1.90;;;;;;;37.73;26.44;100303.96;106350;1257;66905;-92
2023/07/11 13:40:16;;;;;;;2.50;1.70;;;;;;;38.01;26.02;100305.45;106263;1258;61220;-91
2023/07/11 13:43:51;;;;;;;3.40;1.80;;;;;;;38.24;25.01;100309.77;106299;1257;64012;-93
2023/07/11 13:47:30;;;;;;;2.20;1.90;;;;;;;38.37;25.34;100309.08;106304;1258;61138;-93
2023/07/11 13:51:04;;;;;;;3.50;2.20;;;;;;;38.38;25.31;100311.08;106194;1257;61154;-94
2023/07/11 13:54:40;;;;;;;2.20;1.70;;;;;;;38.31;25.43;100314.79;106104;1257;66888;-90
2023/07/11 13:58:15;;;;;;;1.90;1.60;;;;;;;38.30;25.48;100314.66;106629;1257;60890;-91
2023/07/11 14:01:50;;;;;;;2.90;1.70;;;;;;;38.63;25.14;100316.21;106223;1257;64157;-89
2023/07/11 14:05:25;;;;;;;4.30;1.70;;;;;;;39.09;24.60;100317.86;106212;1260;61271;-90
2023/07/11 14:09:02;;;;;;;2.90;1.70;;;;;;;39.27;24.15;100318.63;106164;1258;61318;-91
2023/07/11 14:12:37;;;;;;;3.70;1.70;;;;;;;39.47;23.61;100317.40;106331;1256;67097;-91
2023/07/11 14:16:11;;;;;;;1.60;1.50;;;;;;;39.79;22.97;100316.81;106092;1257;61225;-91
2023/07/11 14:19:47;;;;;;;2.30;1.60;;;;;;;39.95;23.12;100311.70;106118;1255;62892;-91
2023/07/11 14:23:22;;;;;;;2.70;1.60;;;;;;;39.99;23.18;100314.00;106392;1257;61246;-92
2023/07/11 14:26:57;;;;;;;1.70;1.40;;;;;;;40.16;22.24;100309.30;106109;1261;60367;-92
2023/07/11 14:30:32;;;;;;;1.60;1.50;;;;;;;40.41;21.62;100308.73;106121;1256;66854;-91
2023/07/11 14:34:10;;;;;;;5.10;1.70;;;;;;;40.96;20.85;100311.17;106044;1257;61785;-91
2023/07/11 14:37:45;;;;;;;2.30;1.30;;;;;;;41.32;20.94;100317.73;106142;1256;65022;-93
2023/07/11 14:41:22;;;;;;;2.80;1.50;;;;;;;41.83;20.76;100319.05;106205;1260;61215;-93
2023/07/11 14:44:28;;;;;;;1.60;1.50;;;;;;;42.12;19.80;100318.72;106113;1255;61125;-92
2023/07/11 14:47:20;;;;;;;2.60;1.80;;;;;;;42.08;19.48;100322.34;106126;1257;66148;-90
2023/07/11 14:50:13;;;;;;;1.60;1.50;;;;;;;41.96;19.16;100324.20;106140;1260;61136;-90
2023/07/11 14:53:30;;;;;;;4.30;1.70;;;;;;;41.64;19.28;100323.05;106346;1255;63961;-92
2023/07/11 14:56:19;;;;;;;5.00;2.00;;;;;;;41.20;19.76;100325.26;105969;1257;61254;-92
2023/07/11 14:59:23;;;;;;;4.40;1.70;;;;;;;40.66;20.67;100326.87;106019;1255;61229;-92
2023/07/11 15:02:32;;;;;;;2.00;1.40;;;;;;;39.87;21.55;100329.71;105988;1262;64811;-93
2023/07/11 15:05:27;;;;;;;4.00;1.60;;;;;;;39.23;22.33;100331.92;105918;1259;61272;-92
2023/07/11 15:08:19;;;;;;;2.10;1.70;;;;;;;38.68;23.41;100335.35;106093;1259;65064;-90
2023/07/11 15:11:25;;;;;;;2.80;1.70;;;;;;;37.80;23.57;100337.21;106004;1261;61251;-91
2023/07/11 15:14:20;;;;;;;2.10;1.90;;;;;;;36.90;24.13;100336.63;106184;1260;61244;-89
2023/07/11 15:17:32;;;;;;;2.50;1.90;;;;;;;36.76;23.95;100338.55;106330;1257;66084;-90
2023/07/11 15:20:22;;;;;;;5.60;2.00;;;;;;;36.68;23.87;100337.64;107029;1260;61357;-92
2023/07/11 15:23:12;;;;;;;3.10;1.80;;;;;;;36.60;24.54;100337.20;106161;1260;65783;-90
2023/07/11 15:25:59;;;;;;;7.20;1.90;;;;;;;36.56;24.32;100337.16;106300;1260;61233;-92
2023/07/11 15:28:48;;;;;;;2.50;1.90;;;;;;;36.59;24.25;100339.20;106093;1261;60327;-90
2023/07/11 15:31:38;;;;;;;5.10;1.90;;;;;;;36.42;24.74;100340.64;106103;1257;64858;-90
2023/07/11 15:34:26;;;;;;;2.00;1.70;;;;;;;36.21;25.08;100340.89;106259;1258;61201;-93
2023/07/11 15:37:15;;;;;;;4.10;2.10;;;;;;;36.08;25.05;100343.92;106208;1259;62729;-91
2023/07/11 15:40:04;;;;;;;3.50;2.00;;;;;;;35.97;25.40;100347.94;106133;1261;61287;-91
2023/07/11 15:42:53;;;;;;;4.00;2.20;;;;;;;35.87;25.43;100349.23;106174;1257;61166;-92
2023/07/11 15:45:42;;;;;;;2.40;2.00;;;;;;;35.79;25.75;100353.71;106367;1260;66191;-90
2023/07/11 15:48:30;;;;;;;3.90;2.00;;;;;;;35.76;25.82;100352.44;106152;1256;61284;-92
2023/07/11 15:51:19;;;;;;;2.30;1.80;;;;;;;35.60;25.98;100355.47;106348;1257;63892;-90
2023/07/11 15:54:07;;;;;;;4.10;2.30;;;;;;;35.46;26.45;100358.65;106057;1261;60606;-89
2023/07/11 15:57:00;;;;;;;3.10;2.00;;;;;;;35.38;26.57;100358.23;106253;1257;61809;-90
2023/07/11 15:59:48;;;;;;;4.70;2.00;;;;;;;35.24;27.06;100365.73;106187;1262;65975;-92
2023/07/11 16:02:37;;;;;;;2.80;1.50;;;;;;;34.98;27.83;100366.88;106240;1257;61292;-91
2023/07/11 16:05:45;;;;;;;4.00;1.80;;;;;;;34.75;28.27;100370.30;106192;1257;64943;-91
2023/07/11 16:08:35;;;;;;;3.00;1.80;;;;;;;34.56;29.03;100372.31;105999;1257;60700;-91
2023/07/11 16:11:24;;;;;;;5.00;2.00;;;;;;;34.46;29.20;100375.34;106222;1255;61148;-90
2023/07/11 16:14:14;;;;;;;11.10;2.20;;;;;;;33.69;30.16;100377.18;106065;1260;67183;-90
2023/07/11 16:17:02;;;;;;;2.80;2.10;;;;;;;33.31;31.14;100378.46;105958;1257;259511;-90
2023/07/11 16:19:51;;;;;;;3.30;2.00;;;;;;;33.04;31.31;100380.71;106191;1255;63868;-91
2023/07/11 16:22:40;;;;;;;2.50;1.80;;;;;;;32.96;31.79;100378.43;106243;1261;61234;-92
2023/07/11 16:25:30;;;;;;;2.60;1.60;;;;;;;32.86;32.19;100384.70;106344;1260;61182;-93
2023/07/11 16:28:20;;;;;;;2.10;1.70;;;;;;;32.83;32.48;100390.33;106159;1258;65797;-91
2023/07/11 16:31:08;;;;;;;4.40;2.20;;;;;;;32.78;32.29;100389.38;106283;1257;61781;-91
2023/07/11 16:33:57;;;;;;;3.70;1.70;;;;;;;32.74;32.07;100390.33;106169;1257;63657;-91
2023/07/11 16:36:48;;;;;;;3.60;2.60;;;;;;;32.60;31.88;100394.16;106201;1257;61238;-89